createdAt,value
2018-05-08T00:03:09.497Z,14.40
2018-05-08T00:08:12.203Z,14.40
2018-05-08T00:13:15.424Z,14.20
2018-05-08T00:18:17.866Z,14.10
2018-05-08T00:23:20.313Z,14.00
2018-05-08T00:28:22.754Z,13.90
2018-05-08T00:33:25.196Z,13.70
2018-05-08T00:38:27.642Z,13.50
2018-05-08T00:43:30.081Z,13.50
2018-05-08T00:48:32.517Z,13.50
2018-05-08T00:53:34.968Z,13.40
2018-05-08T00:58:37.410Z,13.30
2018-05-08T01:03:39.857Z,13.20
2018-05-08T01:08:42.308Z,13.10
2018-05-08T01:13:45.517Z,12.90
2018-05-08T01:18:48.733Z,12.80
2018-05-08T01:23:51.965Z,12.80
2018-05-08T01:28:54.401Z,12.80
2018-05-08T01:33:56.841Z,12.80
2018-05-08T01:38:59.336Z,12.70
2018-05-08T01:44:01.806Z,12.80
2018-05-08T01:49:04.237Z,12.80
2018-05-08T01:54:06.681Z,12.90
2018-05-08T01:59:09.893Z,13.10
2018-05-08T02:04:13.106Z,13.10
2018-05-08T02:09:16.344Z,13.10
2018-05-08T02:14:19.001Z,13.10
2018-05-08T02:19:21.437Z,13.20
2018-05-08T02:24:23.883Z,13.20
2018-05-08T02:29:26.343Z,13.20
2018-05-08T02:34:28.793Z,13.10
2018-05-08T02:39:32.001Z,13.00
2018-05-08T02:44:35.214Z,13.00
2018-05-08T02:49:38.417Z,13.10
2018-05-08T02:54:42.205Z,13.30
2018-05-08T02:59:44.672Z,13.20
2018-05-08T03:04:47.108Z,13.30
2018-05-08T03:09:49.561Z,13.40
2018-05-08T03:14:52.004Z,13.50
2018-05-08T03:19:54.520Z,13.50
2018-05-08T03:24:57.029Z,13.60
2018-05-08T03:29:59.470Z,13.60
2018-05-08T03:35:01.914Z,13.60
2018-05-08T03:40:04.397Z,13.70
2018-05-08T03:45:06.837Z,13.70
2018-05-08T03:50:10.041Z,13.80
2018-05-08T03:55:12.486Z,13.80
2018-05-08T04:00:27.061Z,13.90
2018-05-08T04:05:41.345Z,14.00
2018-05-08T04:10:43.789Z,14.00
2018-05-08T04:15:46.294Z,14.10
2018-05-08T04:20:49.502Z,14.20
2018-05-08T04:25:52.741Z,14.20
2018-05-08T04:30:55.194Z,14.10
2018-05-08T04:35:57.625Z,14.30
2018-05-08T04:41:00.965Z,14.50
2018-05-08T04:46:03.422Z,14.90
2018-05-08T04:51:05.858Z,15.20
2018-05-08T04:56:08.305Z,15.50
2018-05-08T05:01:11.509Z,16.10
2018-05-08T05:06:14.714Z,16.40
2018-05-08T05:11:17.926Z,16.70
2018-05-08T05:16:21.518Z,16.90
2018-05-08T05:21:23.954Z,16.90
2018-05-08T05:26:26.398Z,17.20
2018-05-08T05:31:29.003Z,17.50
2018-05-08T05:36:32.970Z,17.90
2018-05-08T05:41:35.486Z,17.90
2018-05-08T05:46:37.998Z,18.20
2018-05-08T05:51:40.447Z,18.30
2018-05-08T05:56:42.886Z,18.50
2018-05-08T06:01:45.439Z,18.70
2018-05-08T06:06:47.882Z,18.90
2018-05-08T06:11:50.504Z,19.10
2018-05-08T06:16:52.874Z,19.30
2018-05-08T06:21:56.825Z,19.60
2018-05-08T06:27:00.034Z,19.80
2018-05-08T06:32:03.240Z,20.00
2018-05-08T06:37:06.451Z,20.10
2018-05-08T06:42:09.663Z,20.30
2018-05-08T06:47:12.894Z,20.30
2018-05-08T06:52:15.380Z,20.30
2018-05-08T06:57:18.565Z,20.60
2018-05-08T07:02:21.786Z,20.70
2018-05-08T07:07:25.023Z,20.90
2018-05-08T07:12:27.460Z,20.80
2018-05-08T07:17:29.913Z,20.90
2018-05-08T07:22:32.362Z,21.10
2018-05-08T07:27:35.582Z,21.20
2018-05-08T07:32:38.794Z,21.30
2018-05-08T07:37:42.002Z,21.50
2018-05-08T07:42:45.211Z,21.70
2018-05-08T07:47:48.426Z,21.70
2018-05-08T07:52:51.636Z,21.90
2018-05-08T07:57:54.870Z,22.00
2018-05-08T08:02:57.301Z,21.90
2018-05-08T08:07:59.746Z,22.20
2018-05-08T08:13:02.249Z,22.30
2018-05-08T08:18:04.742Z,22.50
2018-05-08T08:23:07.184Z,22.60
2018-05-08T08:28:09.634Z,22.80
2018-05-08T08:33:12.084Z,22.90
2018-05-08T08:38:15.300Z,23.00
2018-05-08T08:43:18.529Z,23.00
2018-05-08T08:48:21.008Z,22.90
2018-05-08T08:53:23.430Z,23.10
2018-05-08T09:03:34.925Z,23.30
2018-05-08T09:08:38.136Z,23.40
2018-05-08T09:13:41.354Z,23.50
2018-05-08T09:18:44.598Z,23.60
2018-05-08T09:23:47.048Z,23.60
2018-05-08T09:28:49.489Z,23.70
2018-05-08T09:33:51.941Z,23.70
2018-05-08T09:38:55.152Z,23.80
2018-05-08T09:43:58.365Z,23.90
2018-05-08T09:49:01.586Z,23.80
2018-05-08T09:54:04.095Z,23.80
2018-05-08T09:59:07.302Z,24.00
2018-05-08T10:04:09.751Z,23.90
2018-05-08T10:09:12.290Z,24.10
2018-05-08T10:14:14.786Z,24.20
2018-05-08T10:19:17.223Z,24.30
2018-05-08T10:24:19.665Z,24.40
2018-05-08T10:29:22.113Z,24.40
2018-05-08T10:34:24.559Z,24.40
2018-05-08T10:39:27.034Z,24.40
2018-05-08T10:44:29.468Z,24.50
2018-05-08T10:49:31.926Z,24.70
2018-05-08T10:54:34.372Z,24.70
2018-05-08T10:59:36.821Z,24.70
2018-05-08T11:04:39.300Z,24.80
2018-05-08T11:09:41.800Z,24.60
2018-05-08T11:14:44.245Z,24.60
2018-05-08T11:19:46.737Z,24.70
2018-05-08T11:24:49.167Z,24.80
2018-05-08T11:29:51.666Z,24.80
2018-05-08T11:34:54.111Z,24.90
2018-05-08T11:39:56.560Z,24.80
2018-05-08T11:44:59.033Z,24.90
2018-05-08T11:50:01.563Z,24.90
2018-05-08T11:55:04.005Z,24.90
2018-05-08T12:00:06.514Z,24.90
2018-05-08T12:05:08.959Z,24.90
2018-05-08T12:10:11.395Z,24.90
2018-05-08T12:15:13.837Z,24.90
2018-05-08T12:20:16.285Z,24.80
2018-05-08T12:25:18.735Z,24.90
2018-05-08T12:30:21.174Z,24.90
2018-05-08T12:35:23.667Z,24.90
2018-05-08T12:40:26.110Z,24.80
2018-05-08T12:45:28.558Z,24.70
2018-05-08T12:50:31.022Z,24.70
2018-05-08T12:55:34.228Z,24.80
2018-05-08T13:00:37.433Z,24.80
2018-05-08T13:05:41.178Z,24.90
2018-05-08T13:10:43.613Z,24.90
2018-05-08T13:15:46.064Z,24.90
2018-05-08T13:20:48.556Z,25.00
2018-05-08T13:25:51.049Z,25.00
2018-05-08T13:30:53.494Z,25.20
2018-05-08T13:35:55.937Z,25.20
2018-05-08T13:40:58.411Z,25.20
2018-05-08T13:46:00.842Z,25.30
2018-05-08T13:51:03.277Z,25.30
2018-05-08T13:56:05.721Z,25.30
2018-05-08T14:01:08.165Z,25.30
2018-05-08T14:06:11.410Z,25.20
2018-05-08T14:11:13.857Z,25.20
2018-05-08T14:16:16.300Z,25.20
2018-05-08T14:21:18.753Z,25.30
2018-05-08T14:26:21.961Z,25.30
2018-05-08T14:31:24.440Z,25.30
2018-05-08T14:36:26.849Z,25.20
2018-05-08T14:41:30.064Z,25.40
2018-05-08T14:46:33.266Z,25.40
2018-05-08T14:51:35.706Z,25.40
2018-05-08T14:56:38.148Z,25.30
2018-05-08T15:01:40.677Z,25.30
2018-05-08T15:06:43.170Z,25.20
2018-05-08T15:11:45.675Z,25.20
2018-05-08T15:16:48.178Z,25.20
2018-05-08T15:21:50.675Z,25.20
2018-05-08T15:26:53.855Z,25.20
2018-05-08T15:31:56.325Z,25.10
2018-05-08T15:36:58.854Z,25.20
2018-05-08T15:42:01.338Z,25.30
2018-05-08T15:47:03.786Z,25.30
2018-05-08T15:52:06.235Z,25.40
2018-05-08T15:57:08.716Z,25.40
2018-05-08T16:02:11.164Z,25.40
2018-05-08T16:07:13.600Z,25.40
2018-05-08T16:12:16.124Z,25.50
2018-05-08T16:17:18.486Z,25.60
2018-05-08T16:22:20.927Z,25.60
2018-05-08T16:27:23.470Z,25.60
2018-05-08T16:32:25.909Z,25.60
2018-05-08T16:37:28.349Z,25.60
2018-05-08T16:42:30.849Z,25.60
2018-05-08T16:47:33.296Z,25.40
2018-05-08T16:52:35.738Z,25.30
2018-05-08T16:57:38.178Z,25.30
2018-05-08T17:02:40.622Z,25.20
2018-05-08T17:07:43.066Z,25.20
2018-05-08T17:12:46.316Z,25.00
2018-05-08T17:17:48.809Z,25.00
2018-05-08T17:22:51.249Z,24.90
2018-05-08T17:27:54.510Z,24.90
2018-05-08T17:32:57.021Z,24.80
2018-05-08T17:37:59.500Z,24.90
2018-05-08T17:43:01.996Z,24.80
2018-05-08T17:48:04.438Z,24.70
2018-05-08T17:53:06.977Z,24.70
2018-05-08T17:58:09.417Z,24.60
2018-05-08T18:03:11.861Z,24.50
2018-05-08T18:08:14.297Z,24.30
2018-05-08T18:13:16.849Z,24.10
2018-05-08T18:18:19.342Z,24.00
2018-05-08T18:23:21.788Z,23.80
2018-05-08T18:28:24.230Z,23.70
2018-05-08T18:33:26.669Z,23.50
2018-05-08T18:38:29.119Z,23.30
2018-05-08T18:43:31.601Z,23.20
2018-05-08T18:48:34.054Z,23.00
2018-05-08T18:53:36.495Z,22.80
2018-05-08T18:58:38.934Z,22.70
2018-05-08T19:03:42.261Z,22.30
2018-05-08T19:08:44.761Z,22.30
2018-05-08T19:13:47.970Z,22.00
2018-05-08T19:24:34.054Z,21.80
2018-05-08T19:29:42.345Z,21.70
2018-05-08T19:34:50.572Z,21.50
2018-05-08T19:39:53.814Z,21.10
2018-05-08T19:44:56.305Z,21.10
2018-05-08T19:49:58.754Z,21.00
2018-05-08T19:55:02.705Z,20.70
2018-05-08T20:00:05.916Z,20.60
2018-05-08T20:05:09.151Z,20.40
2018-05-08T20:10:11.619Z,20.40
2018-05-08T20:15:14.850Z,20.30
2018-05-08T20:20:17.342Z,20.20
2018-05-08T20:25:19.785Z,20.10
2018-05-08T20:30:22.229Z,20.00
2018-05-08T20:35:24.683Z,19.80
2018-05-08T20:40:27.134Z,19.70
2018-05-08T20:45:29.570Z,19.60
2018-05-08T20:50:32.098Z,19.50
2018-05-08T20:55:34.619Z,19.40
2018-05-08T21:00:36.985Z,19.30
2018-05-08T21:05:39.511Z,19.20
2018-05-08T21:10:41.913Z,19.50
2018-05-08T21:15:44.357Z,19.30
2018-05-08T21:20:46.798Z,19.20
2018-05-08T21:25:49.340Z,19.20
2018-05-08T21:30:57.496Z,19.10
2018-05-08T21:35:59.944Z,19.10
2018-05-08T21:41:03.155Z,19.00
2018-05-08T21:46:06.380Z,19.00
2018-05-08T21:51:08.878Z,18.90
2018-05-08T21:56:11.317Z,18.90
2018-05-08T22:01:13.754Z,18.90
2018-05-08T22:06:16.254Z,18.80
2018-05-08T22:11:19.357Z,18.80
2018-05-08T22:16:21.854Z,18.80
2018-05-08T22:21:24.294Z,18.70
2018-05-08T22:26:26.833Z,18.60
2018-05-08T22:31:29.289Z,18.60
2018-05-08T22:36:31.824Z,18.50
2018-05-08T22:41:34.264Z,18.50
2018-05-08T22:46:36.717Z,18.40
2018-05-08T22:51:39.202Z,18.40
2018-05-08T22:56:41.664Z,18.30
2018-05-08T23:01:44.106Z,18.20
2018-05-08T23:06:46.544Z,18.10
2018-05-08T23:11:48.985Z,18.00
2018-05-08T23:16:51.425Z,17.90
2018-05-08T23:21:53.860Z,17.90
2018-05-08T23:26:56.359Z,17.80
2018-05-08T23:31:58.793Z,17.70
2018-05-08T23:37:02.748Z,17.50
2018-05-08T23:42:05.950Z,17.60
2018-05-08T23:47:09.154Z,17.50
2018-05-08T23:52:11.593Z,17.50
2018-05-08T23:57:14.069Z,17.50
